createdAt,value
2019-03-08T00:02:18.350Z,94558.75
2019-03-08T00:04:48.375Z,94553.95
2019-03-08T00:07:18.291Z,94561.89
2019-03-08T00:09:48.338Z,94562.26
2019-03-08T00:12:18.276Z,94558.67
2019-03-08T00:14:48.251Z,94576.33
2019-03-08T00:17:18.199Z,94561.58
2019-03-08T00:19:48.079Z,94552.67
2019-03-08T00:22:18.014Z,94559.44
2019-03-08T00:24:48.260Z,94552.67
2019-03-08T00:27:18.122Z,94560.24
2019-03-08T00:29:48.105Z,94561.22
2019-03-08T00:32:18.143Z,94554.94
2019-03-08T00:34:47.972Z,94554.55
2019-03-08T00:37:18.257Z,94560.36
2019-03-08T00:39:48.228Z,94568.89
2019-03-08T00:42:18.190Z,94570.11
2019-03-08T00:44:48.077Z,94563.70
2019-03-08T00:47:18.144Z,94571.88
2019-03-08T00:49:48.086Z,94564.19
2019-03-08T00:52:18.087Z,94567.89
2019-03-08T00:54:48.026Z,94573.81
2019-03-08T00:57:18.009Z,94573.16
2019-03-08T00:59:47.905Z,94573.44
2019-03-08T01:02:18.860Z,94571.56
2019-03-08T01:04:49.239Z,94569.91
2019-03-08T01:07:19.133Z,94566.61
2019-03-08T01:09:49.118Z,94563.52
2019-03-08T01:12:19.058Z,94562.45
2019-03-08T01:14:49.071Z,94566.84
2019-03-08T01:17:19.278Z,94567.84
2019-03-08T01:19:49.233Z,94574.64
2019-03-08T01:22:19.209Z,94565.23
2019-03-08T01:24:49.225Z,94569.47
2019-03-08T01:27:19.510Z,94574.48
2019-03-08T01:29:49.505Z,94572.13
2019-03-08T01:32:19.553Z,94573.69
2019-03-08T01:34:49.451Z,94577.48
2019-03-08T01:37:20.508Z,94576.80
2019-03-08T01:39:51.516Z,94575.49
2019-03-08T01:42:21.546Z,94571.08
2019-03-08T01:44:51.439Z,94575.03
2019-03-08T01:47:22.353Z,94578.55
2019-03-08T01:49:52.355Z,94575.39
2019-03-08T01:52:22.353Z,94574.02
2019-03-08T01:54:52.311Z,94579.61
2019-03-08T01:57:22.395Z,94577.16
2019-03-08T01:59:52.297Z,94573.82
2019-03-08T02:02:22.272Z,94574.13
2019-03-08T02:04:52.251Z,94577.95
2019-03-08T02:07:22.331Z,94577.77
2019-03-08T02:09:52.545Z,94566.27
2019-03-08T02:12:23.587Z,94558.89
2019-03-08T02:14:53.654Z,94553.20
2019-03-08T02:17:23.645Z,94554.28
2019-03-08T02:19:53.622Z,94561.55
2019-03-08T02:22:23.710Z,94556.66
2019-03-08T02:24:53.657Z,94571.97
2019-03-08T02:27:23.596Z,94568.64
2019-03-08T02:29:53.606Z,94571.77
2019-03-08T02:32:23.533Z,94571.09
2019-03-08T02:34:53.615Z,94580.99
2019-03-08T02:37:23.632Z,94580.13
2019-03-08T02:39:54.470Z,94592.52
2019-03-08T02:42:25.411Z,94581.34
2019-03-08T02:44:55.417Z,94577.20
2019-03-08T02:47:26.310Z,94586.33
2019-03-08T02:49:56.337Z,94587.33
2019-03-08T02:52:26.229Z,94581.43
2019-03-08T02:54:56.067Z,94587.80
2019-03-08T02:57:26.041Z,94597.84
2019-03-08T02:59:55.895Z,94598.44
2019-03-08T03:02:25.884Z,94607.05
2019-03-08T03:04:55.784Z,94614.29
2019-03-08T03:07:25.668Z,94616.84
2019-03-08T03:09:55.715Z,94619.91
2019-03-08T03:12:25.641Z,94633.38
2019-03-08T03:14:55.896Z,94632.27
2019-03-08T03:17:25.767Z,94626.83
2019-03-08T03:19:55.775Z,94631.20
2019-03-08T03:22:25.727Z,94632.76
2019-03-08T03:24:55.957Z,94641.70
2019-03-08T03:27:25.904Z,94638.74
2019-03-08T03:29:55.820Z,94646.41
2019-03-08T03:32:25.731Z,94636.27
2019-03-08T03:34:55.638Z,94637.47
2019-03-08T03:37:25.577Z,94642.36
2019-03-08T03:39:55.412Z,94641.78
2019-03-08T03:42:25.623Z,94647.09
2019-03-08T03:44:55.550Z,94644.80
2019-03-08T03:47:25.565Z,94643.11
2019-03-08T03:49:55.436Z,94645.17
2019-03-08T03:52:25.326Z,94652.45
2019-03-08T03:54:56.066Z,94649.20
2019-03-08T03:57:27.025Z,94651.92
2019-03-08T03:59:56.945Z,94651.70
2019-03-08T04:02:26.825Z,94655.78
2019-03-08T04:04:56.773Z,94654.58
2019-03-08T04:07:26.614Z,94661.75
2019-03-08T04:09:56.592Z,94652.63
2019-03-08T04:12:26.596Z,94656.05
2019-03-08T04:14:56.635Z,94658.05
2019-03-08T04:17:26.556Z,94666.80
2019-03-08T04:19:56.573Z,94666.39
2019-03-08T04:22:26.506Z,94663.78
2019-03-08T04:24:56.436Z,94663.25
2019-03-08T04:27:26.452Z,94666.72
2019-03-08T04:29:56.755Z,94667.37
2019-03-08T04:32:26.803Z,94668.64
2019-03-08T04:34:56.981Z,94674.15
2019-03-08T04:37:26.980Z,94679.30
2019-03-08T04:39:57.975Z,94679.75
2019-03-08T04:42:27.912Z,94677.99
2019-03-08T04:44:57.800Z,94677.88
2019-03-08T04:47:27.671Z,94683.41
2019-03-08T04:49:57.535Z,94689.95
2019-03-08T04:52:27.485Z,94686.29
2019-03-08T04:54:57.383Z,94687.94
2019-03-08T04:57:27.380Z,94702.33
2019-03-08T04:59:57.472Z,94687.72
2019-03-08T05:02:27.462Z,94692.72
2019-03-08T05:04:57.299Z,94701.28
2019-03-08T05:07:27.265Z,94698.91
2019-03-08T05:09:57.210Z,94703.41
2019-03-08T05:12:27.112Z,94708.81
2019-03-08T05:14:57.420Z,94712.80
2019-03-08T05:17:27.243Z,94702.44
2019-03-08T05:19:57.145Z,94719.34
2019-03-08T05:22:26.968Z,94711.63
2019-03-08T05:24:56.916Z,94740.43
2019-03-08T05:27:29.541Z,94731.78
2019-03-08T05:29:59.517Z,94720.25
2019-03-08T05:32:29.404Z,94731.12
2019-03-08T05:34:59.272Z,94740.16
2019-03-08T05:37:29.184Z,94733.19
2019-03-08T05:39:59.065Z,94758.22
2019-03-08T05:42:28.883Z,94741.75
2019-03-08T05:44:58.833Z,94736.47
2019-03-08T05:47:28.826Z,94739.44
2019-03-08T05:49:58.754Z,94730.45
2019-03-08T05:52:28.578Z,94740.20
2019-03-08T05:54:58.514Z,94754.34
2019-03-08T05:57:29.462Z,94742.45
2019-03-08T05:59:59.402Z,94757.00
2019-03-08T06:02:29.252Z,94757.20
2019-03-08T06:04:59.108Z,94752.84
2019-03-08T06:07:29.029Z,94765.91
2019-03-08T06:09:59.088Z,94759.02
2019-03-08T06:12:29.120Z,94763.51
2019-03-08T06:14:59.151Z,94772.18
2019-03-08T06:17:29.087Z,94786.03
2019-03-08T06:19:59.102Z,94778.48
2019-03-08T06:22:29.896Z,94769.93
2019-03-08T06:24:59.793Z,94782.21
2019-03-08T06:27:29.706Z,94787.26
2019-03-08T06:29:59.581Z,94796.84
2019-03-08T06:32:29.499Z,94790.70
2019-03-08T06:34:59.409Z,94797.16
2019-03-08T06:37:29.479Z,94813.92
2019-03-08T06:39:59.547Z,94800.38
2019-03-08T06:42:29.436Z,94806.27
2019-03-08T06:44:59.333Z,94810.42
2019-03-08T06:47:29.339Z,94807.75
2019-03-08T06:49:59.337Z,94811.77
2019-03-08T06:52:29.202Z,94830.91
2019-03-08T06:54:59.080Z,94822.45
2019-03-08T06:57:29.043Z,94836.98
2019-03-08T07:00:05.197Z,94827.87
2019-03-08T07:02:36.689Z,94835.19
2019-03-08T07:05:06.687Z,94836.59
2019-03-08T07:07:36.621Z,94870.26
2019-03-08T07:10:06.896Z,94848.89
2019-03-08T07:12:36.914Z,94854.85
2019-03-08T07:15:06.950Z,94858.13
2019-03-08T07:17:37.005Z,94855.03
2019-03-08T07:20:26.131Z,94866.00
2019-03-08T07:23:27.614Z,94848.92
2019-03-08T07:26:13.555Z,94873.22
2019-03-08T07:29:08.129Z,94878.51
2019-03-08T07:31:57.376Z,94910.86
2019-03-08T07:34:33.288Z,94892.42
2019-03-08T07:37:21.120Z,94904.59
2019-03-08T07:40:08.785Z,94893.91
2019-03-08T07:43:00.770Z,94918.78
2019-03-08T07:45:55.841Z,94904.67
2019-03-08T07:48:48.000Z,94898.38
2019-03-08T07:51:48.932Z,94909.16
2019-03-08T07:54:32.022Z,94904.78
2019-03-08T07:57:16.828Z,94916.42
2019-03-08T07:59:59.083Z,94913.66
2019-03-08T08:02:44.583Z,94924.89
2019-03-08T08:05:38.932Z,94930.91
2019-03-08T08:08:22.598Z,94923.16
2019-03-08T08:11:14.184Z,94957.89
2019-03-08T08:14:03.131Z,94939.41
2019-03-08T08:16:52.044Z,94953.00
2019-03-08T08:19:37.934Z,94967.30
2019-03-08T08:22:25.790Z,94953.84
2019-03-08T08:25:10.866Z,94978.17
2019-03-08T08:28:05.946Z,94970.55
2019-03-08T08:30:56.761Z,94998.28
2019-03-08T08:33:54.813Z,94997.42
2019-03-08T08:36:37.596Z,94986.44
2019-03-08T08:39:29.018Z,94991.71
2019-03-08T08:42:12.826Z,95014.07
2019-03-08T08:45:01.881Z,95016.67
2019-03-08T08:47:43.318Z,94990.53
2019-03-08T08:50:24.010Z,95016.63
2019-03-08T08:53:12.969Z,95015.34
2019-03-08T08:56:10.128Z,95013.73
2019-03-08T08:58:47.261Z,95025.30
2019-03-08T09:01:34.887Z,95021.54
2019-03-08T09:04:19.044Z,95026.76
2019-03-08T09:07:06.670Z,95026.76
2019-03-08T09:09:58.521Z,95037.86
2019-03-08T09:12:41.256Z,95070.30
2019-03-08T09:15:19.863Z,95053.02
2019-03-08T09:18:11.595Z,95034.69
2019-03-08T09:20:59.420Z,95055.54
2019-03-08T09:23:51.593Z,95032.13
2019-03-08T09:26:45.391Z,95035.59
2019-03-08T09:29:41.050Z,95044.90
2019-03-08T09:32:15.085Z,95053.41
2019-03-08T09:35:02.973Z,95084.66
2019-03-08T09:37:49.504Z,95055.88
2019-03-08T09:40:38.873Z,95064.94
2019-03-08T09:43:37.976Z,95074.08
2019-03-08T09:46:30.178Z,95079.02
2019-03-08T09:49:17.746Z,95085.41
2019-03-08T09:51:53.579Z,95105.00
2019-03-08T09:54:47.819Z,95102.76
2019-03-08T09:57:27.692Z,95089.53
2019-03-08T10:00:19.414Z,95097.45
2019-03-08T10:03:14.162Z,95108.53
2019-03-08T10:05:51.834Z,95107.82
2019-03-08T10:08:28.585Z,95113.91
2019-03-08T10:11:28.114Z,95107.58
2019-03-08T10:14:06.704Z,95096.98
2019-03-08T10:16:41.799Z,95120.72
2019-03-08T10:19:34.440Z,95098.22
2019-03-08T10:22:13.068Z,95100.06
2019-03-08T10:25:04.742Z,95120.92
2019-03-08T10:27:42.179Z,95131.48
2019-03-08T10:30:31.893Z,95125.20
2019-03-08T10:33:23.412Z,95131.57
2019-03-08T10:36:06.440Z,95136.50
2019-03-08T10:38:46.630Z,95133.00
2019-03-08T10:41:44.657Z,95158.80
2019-03-08T10:44:26.102Z,95143.11
2019-03-08T10:47:13.864Z,95153.64
2019-03-08T10:50:18.008Z,95153.98
2019-03-08T10:53:03.160Z,95186.52
2019-03-08T10:55:54.126Z,95162.66
2019-03-08T10:58:47.284Z,95151.48
2019-03-08T11:01:36.257Z,95162.05
2019-03-08T11:04:26.489Z,95162.05
2019-03-08T11:07:20.534Z,95151.63
2019-03-08T11:10:04.338Z,95153.52
2019-03-08T11:12:56.432Z,95166.71
2019-03-08T11:15:37.523Z,95149.38
2019-03-08T11:18:32.516Z,95158.78
2019-03-08T11:21:27.815Z,95159.07
2019-03-08T11:24:08.311Z,95151.52
2019-03-08T11:27:05.016Z,95155.70
2019-03-08T11:29:51.454Z,95168.29
2019-03-08T11:32:26.924Z,95159.81
2019-03-08T11:35:18.631Z,95161.80
2019-03-08T11:38:05.584Z,95186.80
2019-03-08T11:40:55.406Z,95148.58
2019-03-08T11:43:44.071Z,95149.56
2019-03-08T11:46:33.735Z,95155.11
2019-03-08T11:49:19.836Z,95152.53
2019-03-08T11:51:58.876Z,95145.48
2019-03-08T11:54:46.475Z,95150.67
2019-03-08T11:57:27.709Z,95143.08
2019-03-08T12:00:07.499Z,95136.83
2019-03-08T12:03:14.879Z,95147.84
2019-03-08T12:06:06.997Z,95146.81
2019-03-08T12:09:09.345Z,95141.51
2019-03-08T12:11:54.003Z,95149.30
2019-03-08T12:14:33.038Z,95157.00
2019-03-08T12:17:17.174Z,95172.66
2019-03-08T12:20:01.808Z,95187.70
2019-03-08T12:22:44.245Z,95179.09
2019-03-08T12:25:28.132Z,95169.72
2019-03-08T12:28:17.006Z,95179.56
2019-03-08T12:31:08.693Z,95163.86
2019-03-08T12:33:56.406Z,95177.82
2019-03-08T12:36:48.570Z,95169.64
2019-03-08T12:39:53.002Z,95158.58
2019-03-08T12:42:47.959Z,95166.61
2019-03-08T12:45:34.128Z,95203.72
2019-03-08T12:48:24.058Z,95155.81
2019-03-08T12:51:02.645Z,95153.86
2019-03-08T12:53:56.771Z,95151.05
2019-03-08T12:56:35.490Z,95161.91
2019-03-08T12:59:27.917Z,95162.30
2019-03-08T13:02:21.432Z,95160.51
2019-03-08T13:05:20.417Z,95151.79
2019-03-08T13:08:04.852Z,95184.09
2019-03-08T13:10:37.548Z,95153.63
2019-03-08T13:13:09.570Z,95145.58
2019-03-08T13:15:39.575Z,95147.23
2019-03-08T13:18:10.464Z,95151.82
2019-03-08T13:20:40.568Z,95155.30
2019-03-08T13:23:10.585Z,95150.88
2019-03-08T13:25:40.517Z,95153.63
2019-03-08T13:28:10.523Z,95164.67
2019-03-08T13:30:40.475Z,95166.70
2019-03-08T13:33:10.422Z,95169.16
2019-03-08T13:35:40.807Z,95176.97
2019-03-08T13:38:10.835Z,95157.14
2019-03-08T13:40:40.892Z,95170.78
2019-03-08T13:43:11.118Z,95173.12
2019-03-08T13:45:41.169Z,95178.62
2019-03-08T13:48:11.399Z,95179.58
2019-03-08T13:51:08.722Z,95182.34
2019-03-08T13:53:38.774Z,95199.78
2019-03-08T13:56:08.946Z,95194.02
2019-03-08T13:58:38.775Z,95192.91
2019-03-08T14:01:09.010Z,95203.62
2019-03-08T14:03:39.049Z,95198.78
2019-03-08T14:06:09.100Z,95197.09
2019-03-08T14:08:39.146Z,95213.05
2019-03-08T14:11:09.151Z,95209.56
2019-03-08T14:13:39.118Z,95226.16
2019-03-08T14:16:09.137Z,95218.25
2019-03-08T14:18:39.087Z,95209.14
2019-03-08T14:21:09.105Z,95205.89
2019-03-08T14:23:39.280Z,95218.94
2019-03-08T14:26:09.229Z,95217.91
2019-03-08T14:28:39.056Z,95214.70
2019-03-08T14:31:14.970Z,95210.79
2019-03-08T14:33:44.825Z,95216.91
2019-03-08T14:36:14.825Z,95219.56
2019-03-08T14:38:44.786Z,95219.98
2019-03-08T14:41:20.039Z,95209.63
2019-03-08T14:44:09.027Z,95223.39
2019-03-08T14:47:03.686Z,95225.67
2019-03-08T14:49:33.540Z,95222.44
2019-03-08T14:52:03.599Z,95226.11
2019-03-08T14:54:33.461Z,95223.84
2019-03-08T14:57:03.484Z,95230.94
2019-03-08T14:59:33.431Z,95249.00
2019-03-08T15:02:03.462Z,95246.77
2019-03-08T15:04:34.040Z,95241.52
2019-03-08T15:07:04.608Z,95229.19
2019-03-08T15:09:36.788Z,95236.87
2019-03-08T15:12:16.089Z,95222.07
2019-03-08T15:14:38.372Z,95236.84
2019-03-08T15:17:09.332Z,95256.23
2019-03-08T15:19:40.185Z,95243.83
2019-03-08T15:22:11.151Z,95235.65
2019-03-08T15:24:41.029Z,95228.44
2019-03-08T15:27:11.031Z,95222.92
2019-03-08T15:29:40.956Z,95228.95
2019-03-08T15:32:11.030Z,95248.37
2019-03-08T15:34:42.219Z,95237.45
2019-03-08T15:37:12.107Z,95248.01
2019-03-08T15:39:42.168Z,95239.86
2019-03-08T15:42:12.177Z,95243.10
2019-03-08T15:44:42.208Z,95245.48
2019-03-08T15:47:23.025Z,95236.16
2019-03-08T15:49:44.081Z,95227.94
2019-03-08T15:52:15.286Z,95241.88
2019-03-08T15:54:45.268Z,95238.64
2019-03-08T15:57:15.458Z,95244.97
2019-03-08T15:59:45.463Z,95256.84
2019-03-08T16:02:15.799Z,95256.23
2019-03-08T16:04:49.878Z,95268.34
2019-03-08T16:07:19.067Z,95261.03
2019-03-08T16:09:48.898Z,95262.57
2019-03-08T16:12:18.874Z,95270.81
2019-03-08T16:14:48.770Z,95271.85
2019-03-08T16:17:20.026Z,95271.67
2019-03-08T16:19:49.999Z,95262.22
2019-03-08T16:22:19.982Z,95268.55
2019-03-08T16:24:50.157Z,95263.80
2019-03-08T16:27:20.277Z,95260.30
2019-03-08T16:29:50.067Z,95266.97
2019-03-08T16:32:47.053Z,95270.93
2019-03-08T16:35:17.287Z,95265.38
2019-03-08T16:38:12.843Z,95275.29
2019-03-08T16:40:57.870Z,95281.61
2019-03-08T16:43:58.333Z,95283.98
2019-03-08T16:46:49.779Z,95284.60
2019-03-08T16:49:41.233Z,95293.64
2019-03-08T16:52:26.931Z,95291.36
2019-03-08T16:55:14.641Z,95294.34
2019-03-08T16:58:12.995Z,95299.48
2019-03-08T17:01:08.829Z,95300.28
2019-03-08T17:03:57.734Z,95303.15
2019-03-08T17:06:45.630Z,95308.50
2019-03-08T17:09:47.039Z,95310.01
2019-03-08T17:12:27.291Z,95322.38
2019-03-08T17:15:28.655Z,95317.92
2019-03-08T17:18:17.565Z,95318.12
2019-03-08T17:21:15.797Z,95320.72
2019-03-08T17:24:25.806Z,95322.58
2019-03-08T17:27:17.613Z,95326.55
2019-03-08T17:30:21.950Z,95335.93
2019-03-08T17:33:17.844Z,95335.30
2019-03-08T17:36:19.102Z,95333.23
2019-03-08T17:39:06.853Z,95335.70
2019-03-08T17:41:48.252Z,95338.75
2019-03-08T17:44:37.173Z,95344.61
2019-03-08T17:47:23.670Z,95340.66
2019-03-08T17:50:16.037Z,95344.63
2019-03-08T17:53:01.767Z,95351.86
2019-03-08T17:55:51.566Z,95346.33
2019-03-08T17:58:51.375Z,95355.80
2019-03-08T18:01:39.801Z,95359.65
2019-03-08T18:04:26.556Z,95358.98
2019-03-08T18:07:05.740Z,95364.27
2019-03-08T18:10:07.065Z,95363.95
2019-03-08T18:12:56.379Z,95363.78
2019-03-08T18:15:35.660Z,95368.25
2019-03-08T18:18:27.352Z,95370.33
2019-03-08T18:21:12.501Z,95371.59
2019-03-08T18:24:07.708Z,95378.94
2019-03-08T18:27:00.481Z,95379.27
2019-03-08T18:29:52.452Z,95388.86
2019-03-08T18:32:50.266Z,95391.09
2019-03-08T18:35:31.363Z,95385.68
2019-03-08T18:38:32.389Z,95389.98
2019-03-08T18:41:27.361Z,95389.03
2019-03-08T18:44:14.986Z,95389.35
2019-03-08T18:47:16.502Z,95396.99
2019-03-08T18:49:57.129Z,95394.93
2019-03-08T18:53:04.091Z,95394.33
2019-03-08T18:55:43.307Z,95403.68
2019-03-08T18:58:24.921Z,95408.61
2019-03-08T19:01:16.791Z,95411.33
2019-03-08T19:03:55.769Z,95413.08
2019-03-08T19:06:53.945Z,95422.15
2019-03-08T19:09:40.568Z,95414.98
2019-03-08T19:12:15.637Z,95416.25
2019-03-08T19:14:59.950Z,95420.55
2019-03-08T19:17:45.015Z,95421.98
2019-03-08T19:20:34.326Z,95420.72
2019-03-08T19:23:32.468Z,95432.81
2019-03-08T19:26:33.839Z,95431.73
2019-03-08T19:29:31.847Z,95443.20
2019-03-08T19:32:22.262Z,95452.72
2019-03-08T19:35:05.919Z,95448.92
2019-03-08T19:37:55.755Z,95448.58
2019-03-08T19:40:43.656Z,95437.94
2019-03-08T19:43:26.698Z,95438.58
2019-03-08T19:46:15.394Z,95446.51
2019-03-08T19:48:57.665Z,95450.17
2019-03-08T19:51:46.267Z,95452.11
2019-03-08T19:54:23.888Z,95447.14
2019-03-08T19:57:07.483Z,95455.53
2019-03-08T19:59:55.240Z,95457.13
2019-03-08T20:02:41.852Z,95450.74
2019-03-08T20:05:14.141Z,95446.56
2019-03-08T20:08:15.430Z,95444.49
2019-03-08T20:10:59.442Z,95452.45
2019-03-08T20:13:57.486Z,95452.82
2019-03-08T20:16:47.591Z,95455.20
2019-03-08T20:19:45.333Z,95453.30
2019-03-08T20:22:38.691Z,95443.06
2019-03-08T20:25:22.762Z,95443.84
2019-03-08T20:28:07.835Z,95450.21
2019-03-08T20:30:59.658Z,95459.15
2019-03-08T20:33:47.572Z,95461.05
2019-03-08T20:36:24.475Z,95468.06
2019-03-08T20:39:04.319Z,95468.00
2019-03-08T20:41:53.616Z,95473.42
2019-03-08T20:44:37.097Z,95466.22
2019-03-08T20:47:14.221Z,95466.56
2019-03-08T20:49:44.191Z,95465.44
2019-03-08T20:52:14.208Z,95475.48
2019-03-08T20:54:45.263Z,95464.16
2019-03-08T20:57:15.290Z,95460.02
2019-03-08T20:59:45.228Z,95460.23
2019-03-08T21:02:15.241Z,95457.14
2019-03-08T21:04:45.132Z,95460.02
2019-03-08T21:07:15.099Z,95463.84
2019-03-08T21:09:45.012Z,95453.79
2019-03-08T21:12:15.023Z,95459.27
2019-03-08T21:14:44.940Z,95456.26
2019-03-08T21:17:14.910Z,95468.85
2019-03-08T21:19:45.268Z,95469.98
2019-03-08T21:22:15.194Z,95469.38
2019-03-08T21:24:45.123Z,95464.77
2019-03-08T21:27:15.443Z,95469.86
2019-03-08T21:29:45.542Z,95471.14
2019-03-08T21:32:15.638Z,95477.03
2019-03-08T21:34:45.638Z,95469.07
2019-03-08T21:37:15.588Z,95463.81
2019-03-08T21:39:45.629Z,95461.10
2019-03-08T21:42:15.820Z,95457.13
2019-03-08T21:44:45.732Z,95462.55
2019-03-08T21:47:15.763Z,95463.03
2019-03-08T21:49:45.683Z,95464.78
2019-03-08T21:52:15.686Z,95460.80
2019-03-08T21:54:45.887Z,95456.38
2019-03-08T21:57:15.938Z,95459.53
2019-03-08T21:59:45.770Z,95448.38
2019-03-08T22:02:15.831Z,95463.98
2019-03-08T22:04:54.615Z,95453.63
2019-03-08T22:07:24.627Z,95453.09
2019-03-08T22:10:21.146Z,95456.58
2019-03-08T22:12:51.132Z,95455.14
2019-03-08T22:15:27.801Z,95461.05
2019-03-08T22:17:57.473Z,95461.20
2019-03-08T22:20:27.391Z,95466.48
2019-03-08T22:22:58.367Z,95458.17
2019-03-08T22:25:28.267Z,95461.19
2019-03-08T22:27:58.377Z,95463.75
2019-03-08T22:30:29.484Z,95461.98
2019-03-08T22:32:59.392Z,95465.13
2019-03-08T22:35:29.417Z,95462.36
2019-03-08T22:37:59.353Z,95454.39
2019-03-08T22:40:29.367Z,95453.38
2019-03-08T22:42:59.338Z,95448.45
2019-03-08T22:45:29.395Z,95445.25
2019-03-08T22:47:59.271Z,95456.27
2019-03-08T22:50:29.221Z,95450.19
2019-03-08T22:52:59.047Z,95455.78
2019-03-08T22:55:29.083Z,95456.38
2019-03-08T22:57:58.996Z,95450.67
2019-03-08T23:00:55.150Z,95440.08
2019-03-08T23:03:25.525Z,95437.37
2019-03-08T23:05:55.549Z,95439.70
2019-03-08T23:08:25.541Z,95437.84
2019-03-08T23:10:55.606Z,95435.17
2019-03-08T23:13:25.684Z,95436.97
2019-03-08T23:15:55.864Z,95430.98
2019-03-08T23:18:25.787Z,95436.34
2019-03-08T23:23:31.401Z,95439.06
2019-03-08T23:26:01.244Z,95429.48
2019-03-08T23:28:50.154Z,95423.70
2019-03-08T23:31:27.825Z,95429.73
2019-03-08T23:33:57.879Z,95432.59
2019-03-08T23:36:27.865Z,95435.05
2019-03-08T23:38:58.916Z,95428.66
2019-03-08T23:41:28.831Z,95436.92
2019-03-08T23:43:58.750Z,95430.88
2019-03-08T23:46:28.599Z,95431.17
2019-03-08T23:48:58.562Z,95431.39
2019-03-08T23:51:28.516Z,95427.92
2019-03-08T23:53:58.569Z,95432.69
2019-03-08T23:56:28.428Z,95436.94
2019-03-08T23:58:58.320Z,95426.84
